sensor_id;sensor_type;location;lat;lon;timestamp;temperature;humidity
19214;DHT22;9741;51.020;5.304;2022-09-20T00:00:47;14.20;63.00
19214;DHT22;9741;51.020;5.304;2022-09-20T00:03:16;14.20;63.10
19214;DHT22;9741;51.020;5.304;2022-09-20T00:05:44;14.10;63.00
19214;DHT22;9741;51.020;5.304;2022-09-20T00:08:14;14.10;63.10
19214;DHT22;9741;51.020;5.304;2022-09-20T00:10:41;14.00;63.00
19214;DHT22;9741;51.020;5.304;2022-09-20T00:13:10;14.00;63.10
19214;DHT22;9741;51.020;5.304;2022-09-20T00:15:40;14.00;63.10
19214;DHT22;9741;51.020;5.304;2022-09-20T00:18:08;14.00;63.10
19214;DHT22;9741;51.020;5.304;2022-09-20T00:20:43;13.90;63.10
19214;DHT22;9741;51.020;5.304;2022-09-20T00:23:10;13.90;63.20
19214;DHT22;9741;51.020;5.304;2022-09-20T00:25:37;13.90;63.20
19214;DHT22;9741;51.020;5.304;2022-09-20T00:28:04;13.90;63.20
19214;DHT22;9741;51.020;5.304;2022-09-20T00:30:32;13.80;63.20
19214;DHT22;9741;51.020;5.304;2022-09-20T00:32:59;13.80;63.30
19214;DHT22;9741;51.020;5.304;2022-09-20T00:35:26;13.80;63.30
19214;DHT22;9741;51.020;5.304;2022-09-20T00:37:54;13.80;63.40
19214;DHT22;9741;51.020;5.304;2022-09-20T00:40:22;13.80;63.50
19214;DHT22;9741;51.020;5.304;2022-09-20T00:42:53;13.80;63.50
19214;DHT22;9741;51.020;5.304;2022-09-20T00:45:23;13.80;63.50
19214;DHT22;9741;51.020;5.304;2022-09-20T00:47:54;13.80;63.50
19214;DHT22;9741;51.020;5.304;2022-09-20T00:50:30;13.80;63.60
19214;DHT22;9741;51.020;5.304;2022-09-20T00:53:03;13.80;63.60
19214;DHT22;9741;51.020;5.304;2022-09-20T00:55:33;13.70;63.50
19214;DHT22;9741;51.020;5.304;2022-09-20T00:58:00;13.70;63.60
19214;DHT22;9741;51.020;5.304;2022-09-20T01:00:30;13.60;63.50
19214;DHT22;9741;51.020;5.304;2022-09-20T01:03:02;13.50;63.40
19214;DHT22;9741;51.020;5.304;2022-09-20T01:05:30;13.50;63.50
19214;DHT22;9741;51.020;5.304;2022-09-20T01:07:58;13.40;63.30
19214;DHT22;9741;51.020;5.304;2022-09-20T01:10:26;13.30;63.20
19214;DHT22;9741;51.020;5.304;2022-09-20T01:12:53;13.30;63.30
19214;DHT22;9741;51.020;5.304;2022-09-20T01:15:21;13.20;63.20
19214;DHT22;9741;51.020;5.304;2022-09-20T01:17:51;13.20;63.30
19214;DHT22;9741;51.020;5.304;2022-09-20T01:20:22;13.10;63.40
19214;DHT22;9741;51.020;5.304;2022-09-20T01:23:03;13.10;63.50
19214;DHT22;9741;51.020;5.304;2022-09-20T01:28:30;13.10;63.70
19214;DHT22;9741;51.020;5.304;2022-09-20T01:31:02;13.10;63.70
19214;DHT22;9741;51.020;5.304;2022-09-20T01:33:40;13.10;63.80
19214;DHT22;9741;51.020;5.304;2022-09-20T01:36:13;13.10;63.80
19214;DHT22;9741;51.020;5.304;2022-09-20T01:38:47;13.10;63.90
19214;DHT22;9741;51.020;5.304;2022-09-20T01:41:21;13.20;63.90
19214;DHT22;9741;51.020;5.304;2022-09-20T01:43:52;13.20;64.00
19214;DHT22;9741;51.020;5.304;2022-09-20T01:46:31;13.20;64.00
19214;DHT22;9741;51.020;5.304;2022-09-20T01:49:08;13.20;64.10
19214;DHT22;9741;51.020;5.304;2022-09-20T02:01:14;13.40;64.40
19214;DHT22;9741;51.020;5.304;2022-09-20T02:04:15;13.40;64.90
19214;DHT22;9741;51.020;5.304;2022-09-20T02:07:00;13.40;64.40
19214;DHT22;9741;51.020;5.304;2022-09-20T02:09:55;13.50;64.60
19214;DHT22;9741;51.020;5.304;2022-09-20T02:12:42;13.50;64.60
19214;DHT22;9741;51.020;5.304;2022-09-20T02:15:24;13.50;64.60
19214;DHT22;9741;51.020;5.304;2022-09-20T02:18:06;13.60;64.70
19214;DHT22;9741;51.020;5.304;2022-09-20T02:20:42;13.60;64.80
19214;DHT22;9741;51.020;5.304;2022-09-20T02:23:26;13.60;64.80
19214;DHT22;9741;51.020;5.304;2022-09-20T02:26:10;13.70;64.90
19214;DHT22;9741;51.020;5.304;2022-09-20T02:28:55;13.70;64.90
19214;DHT22;9741;51.020;5.304;2022-09-20T02:31:32;13.70;64.90
19214;DHT22;9741;51.020;5.304;2022-09-20T02:34:21;13.80;64.90
19214;DHT22;9741;51.020;5.304;2022-09-20T02:37:04;13.80;64.90
19214;DHT22;9741;51.020;5.304;2022-09-20T02:39:35;13.80;64.90
19214;DHT22;9741;51.020;5.304;2022-09-20T02:42:10;13.80;65.00
19214;DHT22;9741;51.020;5.304;2022-09-20T02:44:51;13.80;64.90
19214;DHT22;9741;51.020;5.304;2022-09-20T02:47:27;13.80;65.00
19214;DHT22;9741;51.020;5.304;2022-09-20T02:50:17;13.80;65.00
19214;DHT22;9741;51.020;5.304;2022-09-20T02:52:56;13.90;65.00
19214;DHT22;9741;51.020;5.304;2022-09-20T02:55:34;13.90;65.00
19214;DHT22;9741;51.020;5.304;2022-09-20T02:58:14;13.90;65.00
19214;DHT22;9741;51.020;5.304;2022-09-20T03:00:52;13.90;65.00
19214;DHT22;9741;51.020;5.304;2022-09-20T03:03:27;14.00;65.10
19214;DHT22;9741;51.020;5.304;2022-09-20T03:06:05;14.00;65.70
19214;DHT22;9741;51.020;5.304;2022-09-20T03:08:39;14.00;65.10
19214;DHT22;9741;51.020;5.304;2022-09-20T03:11:14;14.00;65.10
19214;DHT22;9741;51.020;5.304;2022-09-20T03:13:53;14.00;65.10
19214;DHT22;9741;51.020;5.304;2022-09-20T03:16:33;14.00;65.10
19214;DHT22;9741;51.020;5.304;2022-09-20T03:19:12;14.00;65.00
19214;DHT22;9741;51.020;5.304;2022-09-20T03:21:56;14.00;65.00
19214;DHT22;9741;51.020;5.304;2022-09-20T03:24:37;14.00;65.60
19214;DHT22;9741;51.020;5.304;2022-09-20T03:27:10;14.00;65.00
19214;DHT22;9741;51.020;5.304;2022-09-20T03:29:54;14.00;65.00
19214;DHT22;9741;51.020;5.304;2022-09-20T03:32:37;14.10;65.10
19214;DHT22;9741;51.020;5.304;2022-09-20T03:35:18;14.10;65.10
19214;DHT22;9741;51.020;5.304;2022-09-20T03:38:07;14.10;65.10
19214;DHT22;9741;51.020;5.304;2022-09-20T03:40:59;14.10;65.10
19214;DHT22;9741;51.020;5.304;2022-09-20T03:43:37;14.10;65.10
19214;DHT22;9741;51.020;5.304;2022-09-20T03:46:16;14.10;65.10
19214;DHT22;9741;51.020;5.304;2022-09-20T03:49:07;14.10;65.10
19214;DHT22;9741;51.020;5.304;2022-09-20T03:51:51;14.10;65.10
19214;DHT22;9741;51.020;5.304;2022-09-20T03:54:50;14.00;65.00
19214;DHT22;9741;51.020;5.304;2022-09-20T03:57:32;14.00;65.00
19214;DHT22;9741;51.020;5.304;2022-09-20T04:00:20;14.00;65.00
19214;DHT22;9741;51.020;5.304;2022-09-20T04:05:44;14.00;65.00
19214;DHT22;9741;51.020;5.304;2022-09-20T04:08:27;14.00;65.10
19214;DHT22;9741;51.020;5.304;2022-09-20T04:11:04;13.90;65.60
19214;DHT22;9741;51.020;5.304;2022-09-20T04:13:37;13.90;65.10
19214;DHT22;9741;51.020;5.304;2022-09-20T04:16:16;14.00;65.20
19214;DHT22;9741;51.020;5.304;2022-09-20T04:18:50;13.90;65.10
19214;DHT22;9741;51.020;5.304;2022-09-20T04:21:26;14.00;65.20
19214;DHT22;9741;51.020;5.304;2022-09-20T04:24:00;13.90;65.10
19214;DHT22;9741;51.020;5.304;2022-09-20T04:26:35;14.00;65.20
19214;DHT22;9741;51.020;5.304;2022-09-20T04:29:24;14.00;65.20
19214;DHT22;9741;51.020;5.304;2022-09-20T04:31:56;14.00;65.20
19214;DHT22;9741;51.020;5.304;2022-09-20T04:34:30;14.00;65.20
19214;DHT22;9741;51.020;5.304;2022-09-20T04:37:23;14.00;65.20
19214;DHT22;9741;51.020;5.304;2022-09-20T04:39:58;14.00;65.20
19214;DHT22;9741;51.020;5.304;2022-09-20T04:43:04;14.00;65.20
19214;DHT22;9741;51.020;5.304;2022-09-20T04:55:20;13.90;65.20
19214;DHT22;9741;51.020;5.304;2022-09-20T04:58:44;13.90;65.20
19214;DHT22;9741;51.020;5.304;2022-09-20T05:05:12;13.90;65.30
19214;DHT22;9741;51.020;5.304;2022-09-20T05:11:30;13.90;65.30
19214;DHT22;9741;51.020;5.304;2022-09-20T05:17:14;13.80;65.30
19214;DHT22;9741;51.020;5.304;2022-09-20T05:19:59;13.80;65.30
19214;DHT22;9741;51.020;5.304;2022-09-20T05:22:57;13.80;65.30
19214;DHT22;9741;51.020;5.304;2022-09-20T05:26:02;13.80;65.30
19214;DHT22;9741;51.020;5.304;2022-09-20T05:28:37;13.80;65.30
19214;DHT22;9741;51.020;5.304;2022-09-20T05:31:12;13.70;65.30
19214;DHT22;9741;51.020;5.304;2022-09-20T05:33:47;13.70;65.30
19214;DHT22;9741;51.020;5.304;2022-09-20T05:36:22;13.70;65.20
19214;DHT22;9741;51.020;5.304;2022-09-20T05:38:57;13.70;65.30
19214;DHT22;9741;51.020;5.304;2022-09-20T05:41:30;13.60;65.20
19214;DHT22;9741;51.020;5.304;2022-09-20T05:44:07;13.60;65.20
19214;DHT22;9741;51.020;5.304;2022-09-20T05:46:47;13.60;65.20
19214;DHT22;9741;51.020;5.304;2022-09-20T05:49:29;13.60;65.20
19214;DHT22;9741;51.020;5.304;2022-09-20T05:52:28;13.60;65.30
19214;DHT22;9741;51.020;5.304;2022-09-20T05:55:22;13.60;65.40
19214;DHT22;9741;51.020;5.304;2022-09-20T06:01:04;13.60;65.50
19214;DHT22;9741;51.020;5.304;2022-09-20T06:03:40;13.60;65.40
19214;DHT22;9741;51.020;5.304;2022-09-20T06:06:12;13.70;65.50
19214;DHT22;9741;51.020;5.304;2022-09-20T06:08:55;13.60;65.40
19214;DHT22;9741;51.020;5.304;2022-09-20T06:14:31;13.60;65.80
19214;DHT22;9741;51.020;5.304;2022-09-20T06:17:09;13.50;65.20
19214;DHT22;9741;51.020;5.304;2022-09-20T06:19:43;13.50;65.30
19214;DHT22;9741;51.020;5.304;2022-09-20T06:22:15;13.60;65.50
19214;DHT22;9741;51.020;5.304;2022-09-20T06:24:46;13.60;65.60
19214;DHT22;9741;51.020;5.304;2022-09-20T06:27:17;13.70;65.70
19214;DHT22;9741;51.020;5.304;2022-09-20T06:29:50;13.90;65.80
19214;DHT22;9741;51.020;5.304;2022-09-20T06:32:18;14.00;65.80
19214;DHT22;9741;51.020;5.304;2022-09-20T06:34:47;14.10;65.80
19214;DHT22;9741;51.020;5.304;2022-09-20T06:37:26;14.20;65.80
19214;DHT22;9741;51.020;5.304;2022-09-20T06:40:29;14.30;65.80
19214;DHT22;9741;51.020;5.304;2022-09-20T06:43:15;14.40;65.80
19214;DHT22;9741;51.020;5.304;2022-09-20T06:45:43;14.50;65.70
19214;DHT22;9741;51.020;5.304;2022-09-20T06:48:11;14.60;65.70
19214;DHT22;9741;51.020;5.304;2022-09-20T06:50:41;14.70;65.70
19214;DHT22;9741;51.020;5.304;2022-09-20T06:53:14;14.80;65.70
19214;DHT22;9741;51.020;5.304;2022-09-20T06:55:43;14.90;65.70
19214;DHT22;9741;51.020;5.304;2022-09-20T06:58:11;15.00;65.70
19214;DHT22;9741;51.020;5.304;2022-09-20T07:00:38;15.10;65.70
19214;DHT22;9741;51.020;5.304;2022-09-20T07:03:05;15.20;65.70
19214;DHT22;9741;51.020;5.304;2022-09-20T07:05:33;15.30;65.60
19214;DHT22;9741;51.020;5.304;2022-09-20T07:08:02;15.40;65.40
19214;DHT22;9741;51.020;5.304;2022-09-20T07:10:29;15.50;65.30
19214;DHT22;9741;51.020;5.304;2022-09-20T07:12:57;15.50;65.20
19214;DHT22;9741;51.020;5.304;2022-09-20T07:15:25;15.50;65.00
19214;DHT22;9741;51.020;5.304;2022-09-20T07:17:53;15.50;64.90
19214;DHT22;9741;51.020;5.304;2022-09-20T07:20:20;15.60;64.90
19214;DHT22;9741;51.020;5.304;2022-09-20T07:22:47;15.60;64.80
19214;DHT22;9741;51.020;5.304;2022-09-20T07:25:16;15.60;64.80
19214;DHT22;9741;51.020;5.304;2022-09-20T07:27:44;15.60;64.80
19214;DHT22;9741;51.020;5.304;2022-09-20T07:30:13;15.60;64.70
19214;DHT22;9741;51.020;5.304;2022-09-20T07:32:40;15.60;64.60
19214;DHT22;9741;51.020;5.304;2022-09-20T07:35:08;15.70;64.70
19214;DHT22;9741;51.020;5.304;2022-09-20T07:37:35;15.70;64.70
19214;DHT22;9741;51.020;5.304;2022-09-20T07:40:07;15.70;64.60
19214;DHT22;9741;51.020;5.304;2022-09-20T07:42:36;15.70;64.60
19214;DHT22;9741;51.020;5.304;2022-09-20T07:45:04;15.70;64.50
19214;DHT22;9741;51.020;5.304;2022-09-20T07:47:32;15.80;64.70
19214;DHT22;9741;51.020;5.304;2022-09-20T07:50:01;15.80;64.60
19214;DHT22;9741;51.020;5.304;2022-09-20T07:52:28;15.80;64.60
19214;DHT22;9741;51.020;5.304;2022-09-20T07:54:55;15.80;64.60
19214;DHT22;9741;51.020;5.304;2022-09-20T09:21:42;18.80;63.20
19214;DHT22;9741;51.020;5.304;2022-09-20T09:24:16;18.90;63.00
19214;DHT22;9741;51.020;5.304;2022-09-20T09:26:43;19.00;62.60
19214;DHT22;9741;51.020;5.304;2022-09-20T09:29:16;19.10;62.40
19214;DHT22;9741;51.020;5.304;2022-09-20T09:31:44;19.10;62.10
19214;DHT22;9741;51.020;5.304;2022-09-20T09:34:25;19.10;61.90
19214;DHT22;9741;51.020;5.304;2022-09-20T09:36:55;19.20;61.80
19214;DHT22;9741;51.020;5.304;2022-09-20T09:39:24;19.30;61.80
19214;DHT22;9741;51.020;5.304;2022-09-20T09:41:51;19.40;61.70
19214;DHT22;9741;51.020;5.304;2022-09-20T09:44:20;19.70;61.60
19214;DHT22;9741;51.020;5.304;2022-09-20T09:46:48;19.90;61.30
19214;DHT22;9741;51.020;5.304;2022-09-20T09:49:18;20.00;60.80
19214;DHT22;9741;51.020;5.304;2022-09-20T09:52:02;20.10;60.20
19214;DHT22;9741;51.020;5.304;2022-09-20T09:54:31;20.30;59.50
19214;DHT22;9741;51.020;5.304;2022-09-20T09:57:09;20.40;59.20
19214;DHT22;9741;51.020;5.304;2022-09-20T09:59:53;20.50;58.90
19214;DHT22;9741;51.020;5.304;2022-09-20T10:05:31;20.80;58.00
19214;DHT22;9741;51.020;5.304;2022-09-20T10:08:20;20.80;58.10
19214;DHT22;9741;51.020;5.304;2022-09-20T10:11:00;20.90;57.80
19214;DHT22;9741;51.020;5.304;2022-09-20T10:20:29;21.20;57.10
19214;DHT22;9741;51.020;5.304;2022-09-20T11:12:36;20.30;55.10
19214;DHT22;9741;51.020;5.304;2022-09-20T11:24:10;20.80;53.40
19214;DHT22;9741;51.020;5.304;2022-09-20T13:15:37;17.90;52.90
19214;DHT22;9741;51.020;5.304;2022-09-20T13:22:35;17.80;53.10
19214;DHT22;9741;51.020;5.304;2022-09-20T13:44:32;18.50;53.60
19214;DHT22;9741;51.020;5.304;2022-09-20T13:47:21;18.50;53.50
19214;DHT22;9741;51.020;5.304;2022-09-20T13:50:35;18.50;53.50
19214;DHT22;9741;51.020;5.304;2022-09-20T13:53:21;18.60;53.70
19214;DHT22;9741;51.020;5.304;2022-09-20T13:57:19;18.60;53.90
19214;DHT22;9741;51.020;5.304;2022-09-20T13:59:10;18.60;53.90
19214;DHT22;9741;51.020;5.304;2022-09-20T14:17:57;18.40;54.10
19214;DHT22;9741;51.020;5.304;2022-09-20T14:20:24;18.40;54.30
19214;DHT22;9741;51.020;5.304;2022-09-20T14:22:52;18.40;54.40
19214;DHT22;9741;51.020;5.304;2022-09-20T14:25:22;18.40;54.40
19214;DHT22;9741;51.020;5.304;2022-09-20T14:28:04;18.40;54.20
19214;DHT22;9741;51.020;5.304;2022-09-20T14:30:34;18.40;54.20
19214;DHT22;9741;51.020;5.304;2022-09-20T14:33:10;18.30;54.10
19214;DHT22;9741;51.020;5.304;2022-09-20T14:35:47;18.30;54.10
19214;DHT22;9741;51.020;5.304;2022-09-20T14:38:17;18.30;54.00
19214;DHT22;9741;51.020;5.304;2022-09-20T14:40:47;18.30;54.00
19214;DHT22;9741;51.020;5.304;2022-09-20T14:43:27;18.30;53.90
19214;DHT22;9741;51.020;5.304;2022-09-20T14:46:00;18.30;53.70
19214;DHT22;9741;51.020;5.304;2022-09-20T14:48:35;18.20;53.50
19214;DHT22;9741;51.020;5.304;2022-09-20T14:51:19;18.20;53.40
19214;DHT22;9741;51.020;5.304;2022-09-20T14:53:50;18.20;53.40
19214;DHT22;9741;51.020;5.304;2022-09-20T14:56:29;18.30;53.50
19214;DHT22;9741;51.020;5.304;2022-09-20T14:59:05;18.30;53.40
19214;DHT22;9741;51.020;5.304;2022-09-20T15:02:03;18.30;53.20
19214;DHT22;9741;51.020;5.304;2022-09-20T15:04:32;18.40;53.20
19214;DHT22;9741;51.020;5.304;2022-09-20T15:07:05;18.40;53.20
19214;DHT22;9741;51.020;5.304;2022-09-20T15:09:33;18.40;53.20
19214;DHT22;9741;51.020;5.304;2022-09-20T15:12:03;18.40;53.20
19214;DHT22;9741;51.020;5.304;2022-09-20T15:14:31;18.50;53.40
19214;DHT22;9741;51.020;5.304;2022-09-20T15:16:59;18.60;53.10
19214;DHT22;9741;51.020;5.304;2022-09-20T15:19:27;18.60;53.00
19214;DHT22;9741;51.020;5.304;2022-09-20T15:21:57;18.70;53.10
19214;DHT22;9741;51.020;5.304;2022-09-20T15:24:25;18.70;53.10
19214;DHT22;9741;51.020;5.304;2022-09-20T15:26:53;18.80;53.20
19214;DHT22;9741;51.020;5.304;2022-09-20T15:29:24;18.90;53.30
19214;DHT22;9741;51.020;5.304;2022-09-20T15:31:52;18.90;53.00
19214;DHT22;9741;51.020;5.304;2022-09-20T15:34:21;19.00;53.10
19214;DHT22;9741;51.020;5.304;2022-09-20T15:36:48;19.00;53.10
19214;DHT22;9741;51.020;5.304;2022-09-20T15:39:17;19.00;53.10
19214;DHT22;9741;51.020;5.304;2022-09-20T15:41:46;19.10;53.10
19214;DHT22;9741;51.020;5.304;2022-09-20T15:44:15;19.10;53.10
19214;DHT22;9741;51.020;5.304;2022-09-20T15:46:42;19.10;53.10
19214;DHT22;9741;51.020;5.304;2022-09-20T15:49:11;19.10;53.20
19214;DHT22;9741;51.020;5.304;2022-09-20T15:51:46;19.20;53.10
19214;DHT22;9741;51.020;5.304;2022-09-20T15:54:14;19.10;53.00
19214;DHT22;9741;51.020;5.304;2022-09-20T15:56:42;19.10;53.20
19214;DHT22;9741;51.020;5.304;2022-09-20T15:59:11;19.10;53.00
19214;DHT22;9741;51.020;5.304;2022-09-20T16:01:41;19.10;53.10
19214;DHT22;9741;51.020;5.304;2022-09-20T16:04:14;19.10;53.10
19214;DHT22;9741;51.020;5.304;2022-09-20T16:06:43;19.00;53.00
19214;DHT22;9741;51.020;5.304;2022-09-20T16:09:12;19.00;53.10
19214;DHT22;9741;51.020;5.304;2022-09-20T16:11:44;18.90;53.20
19214;DHT22;9741;51.020;5.304;2022-09-20T16:14:12;18.80;53.30
19214;DHT22;9741;51.020;5.304;2022-09-20T16:16:39;18.70;53.20
19214;DHT22;9741;51.020;5.304;2022-09-20T16:19:06;18.60;53.30
19214;DHT22;9741;51.020;5.304;2022-09-20T16:21:47;18.50;53.30
19214;DHT22;9741;51.020;5.304;2022-09-20T16:24:16;18.40;53.30
19214;DHT22;9741;51.020;5.304;2022-09-20T16:26:44;18.30;53.40
19214;DHT22;9741;51.020;5.304;2022-09-20T16:29:13;18.20;53.30
19214;DHT22;9741;51.020;5.304;2022-09-20T16:31:42;18.20;53.40
19214;DHT22;9741;51.020;5.304;2022-09-20T16:34:14;18.10;54.00
19214;DHT22;9741;51.020;5.304;2022-09-20T16:36:43;18.10;53.40
19214;DHT22;9741;51.020;5.304;2022-09-20T16:39:11;18.10;53.50
19214;DHT22;9741;51.020;5.304;2022-09-20T16:41:39;18.00;53.50
19214;DHT22;9741;51.020;5.304;2022-09-20T16:44:11;18.00;53.60
19214;DHT22;9741;51.020;5.304;2022-09-20T16:46:39;18.00;53.60
19214;DHT22;9741;51.020;5.304;2022-09-20T16:49:08;17.90;53.60
19214;DHT22;9741;51.020;5.304;2022-09-20T16:51:39;18.00;53.70
19214;DHT22;9741;51.020;5.304;2022-09-20T16:54:07;17.90;53.70
19214;DHT22;9741;51.020;5.304;2022-09-20T16:56:39;17.90;53.80
19214;DHT22;9741;51.020;5.304;2022-09-20T16:59:09;17.90;53.80
19214;DHT22;9741;51.020;5.304;2022-09-20T17:01:37;17.80;53.90
19214;DHT22;9741;51.020;5.304;2022-09-20T17:04:05;17.70;54.00
19214;DHT22;9741;51.020;5.304;2022-09-20T17:06:35;17.60;54.10
19214;DHT22;9741;51.020;5.304;2022-09-20T17:09:05;17.50;54.10
19214;DHT22;9741;51.020;5.304;2022-09-20T17:11:35;17.40;54.20
19214;DHT22;9741;51.020;5.304;2022-09-20T17:14:03;17.30;54.30
19214;DHT22;9741;51.020;5.304;2022-09-20T17:16:34;17.10;54.30
19214;DHT22;9741;51.020;5.304;2022-09-20T17:19:04;17.00;54.50
19214;DHT22;9741;51.020;5.304;2022-09-20T17:21:32;16.90;54.60
19214;DHT22;9741;51.020;5.304;2022-09-20T17:24:03;16.70;54.60
19214;DHT22;9741;51.020;5.304;2022-09-20T17:26:34;16.60;54.80
19214;DHT22;9741;51.020;5.304;2022-09-20T17:29:03;16.40;54.90
19214;DHT22;9741;51.020;5.304;2022-09-20T17:31:34;16.40;55.00
19214;DHT22;9741;51.020;5.304;2022-09-20T17:34:04;16.30;55.10
19214;DHT22;9741;51.020;5.304;2022-09-20T17:36:36;16.10;55.20
19214;DHT22;9741;51.020;5.304;2022-09-20T17:39:05;16.00;55.30
19214;DHT22;9741;51.020;5.304;2022-09-20T17:41:36;15.90;55.50
19214;DHT22;9741;51.020;5.304;2022-09-20T17:44:03;15.80;55.50
19214;DHT22;9741;51.020;5.304;2022-09-20T17:46:37;15.60;55.50
19214;DHT22;9741;51.020;5.304;2022-09-20T17:49:06;15.50;55.70
19214;DHT22;9741;51.020;5.304;2022-09-20T17:51:36;15.40;55.80
19214;DHT22;9741;51.020;5.304;2022-09-20T17:54:06;15.30;55.90
19214;DHT22;9741;51.020;5.304;2022-09-20T17:56:38;15.20;56.00
19214;DHT22;9741;51.020;5.304;2022-09-20T17:59:08;15.10;56.20
19214;DHT22;9741;51.020;5.304;2022-09-20T18:01:37;15.00;56.30
19214;DHT22;9741;51.020;5.304;2022-09-20T18:04:05;14.90;56.40
19214;DHT22;9741;51.020;5.304;2022-09-20T18:06:35;14.80;56.50
19214;DHT22;9741;51.020;5.304;2022-09-20T18:09:04;14.70;56.60
19214;DHT22;9741;51.020;5.304;2022-09-20T18:11:41;14.70;56.80
19214;DHT22;9741;51.020;5.304;2022-09-20T18:14:10;14.60;56.90
19214;DHT22;9741;51.020;5.304;2022-09-20T18:16:39;14.50;57.10
19214;DHT22;9741;51.020;5.304;2022-09-20T18:19:08;14.50;57.10
19214;DHT22;9741;51.020;5.304;2022-09-20T18:21:37;14.40;57.20
19214;DHT22;9741;51.020;5.304;2022-09-20T18:24:08;14.30;57.30
19214;DHT22;9741;51.020;5.304;2022-09-20T18:26:37;14.30;57.50
19214;DHT22;9741;51.020;5.304;2022-09-20T18:29:05;14.30;57.60
19214;DHT22;9741;51.020;5.304;2022-09-20T18:31:35;14.20;57.60
19214;DHT22;9741;51.020;5.304;2022-09-20T18:34:05;14.20;57.70
19214;DHT22;9741;51.020;5.304;2022-09-20T18:36:35;14.20;57.90
19214;DHT22;9741;51.020;5.304;2022-09-20T18:39:05;14.10;57.90
19214;DHT22;9741;51.020;5.304;2022-09-20T18:41:34;14.10;58.00
19214;DHT22;9741;51.020;5.304;2022-09-20T18:44:05;14.00;58.00
19214;DHT22;9741;51.020;5.304;2022-09-20T18:46:33;14.00;58.10
19214;DHT22;9741;51.020;5.304;2022-09-20T18:49:06;14.00;58.20
19214;DHT22;9741;51.020;5.304;2022-09-20T18:51:35;13.90;58.20
19214;DHT22;9741;51.020;5.304;2022-09-20T18:54:02;13.90;58.30
19214;DHT22;9741;51.020;5.304;2022-09-20T18:56:30;13.80;58.30
19214;DHT22;9741;51.020;5.304;2022-09-20T18:59:00;13.70;58.30
19214;DHT22;9741;51.020;5.304;2022-09-20T19:01:51;13.70;58.40
19214;DHT22;9741;51.020;5.304;2022-09-20T19:04:30;13.60;58.50
19214;DHT22;9741;51.020;5.304;2022-09-20T19:07:06;13.50;58.40
19214;DHT22;9741;51.020;5.304;2022-09-20T19:09:43;13.50;58.50
19214;DHT22;9741;51.020;5.304;2022-09-20T19:12:18;13.40;58.60
19214;DHT22;9741;51.020;5.304;2022-09-20T19:14:58;13.30;58.60
19214;DHT22;9741;51.020;5.304;2022-09-20T19:17:44;13.20;59.20
19214;DHT22;9741;51.020;5.304;2022-09-20T19:20:24;13.20;58.80
19214;DHT22;9741;51.020;5.304;2022-09-20T19:23:04;13.20;58.80
19214;DHT22;9741;51.020;5.304;2022-09-20T19:25:39;13.10;59.50
19214;DHT22;9741;51.020;5.304;2022-09-20T19:28:10;13.10;58.90
19214;DHT22;9741;51.020;5.304;2022-09-20T19:30:38;13.10;59.10
19214;DHT22;9741;51.020;5.304;2022-09-20T19:33:13;13.00;59.00
19214;DHT22;9741;51.020;5.304;2022-09-20T19:35:48;13.00;59.10
19214;DHT22;9741;51.020;5.304;2022-09-20T19:38:29;12.90;59.60
19214;DHT22;9741;51.020;5.304;2022-09-20T19:41:11;12.90;59.10
19214;DHT22;9741;51.020;5.304;2022-09-20T19:44:00;12.80;59.10
19214;DHT22;9741;51.020;5.304;2022-09-20T19:46:45;12.80;59.20
19214;DHT22;9741;51.020;5.304;2022-09-20T19:49:18;12.70;59.20
19214;DHT22;9741;51.020;5.304;2022-09-20T19:51:53;12.60;59.10
19214;DHT22;9741;51.020;5.304;2022-09-20T19:54:23;12.60;59.30
19214;DHT22;9741;51.020;5.304;2022-09-20T19:56:53;12.50;59.20
19214;DHT22;9741;51.020;5.304;2022-09-20T19:59:26;12.50;59.30
19214;DHT22;9741;51.020;5.304;2022-09-20T20:01:53;12.40;59.30
19214;DHT22;9741;51.020;5.304;2022-09-20T20:04:21;12.30;59.30
19214;DHT22;9741;51.020;5.304;2022-09-20T20:06:59;12.30;59.40
19214;DHT22;9741;51.020;5.304;2022-09-20T20:09:36;12.30;59.50
19214;DHT22;9741;51.020;5.304;2022-09-20T20:12:10;12.30;59.60
19214;DHT22;9741;51.020;5.304;2022-09-20T20:14:47;12.20;59.60
19214;DHT22;9741;51.020;5.304;2022-09-20T20:17:26;12.20;59.60
19214;DHT22;9741;51.020;5.304;2022-09-20T20:20:17;12.20;59.70
19214;DHT22;9741;51.020;5.304;2022-09-20T20:25:57;12.10;59.70
19214;DHT22;9741;51.020;5.304;2022-09-20T20:28:28;12.10;59.80
19214;DHT22;9741;51.020;5.304;2022-09-20T20:30:59;12.10;59.90
19214;DHT22;9741;51.020;5.304;2022-09-20T20:33:27;12.00;59.90
19214;DHT22;9741;51.020;5.304;2022-09-20T20:35:58;12.00;60.00
19214;DHT22;9741;51.020;5.304;2022-09-20T20:38:26;12.00;60.00
19214;DHT22;9741;51.020;5.304;2022-09-20T20:41:01;12.00;60.10
19214;DHT22;9741;51.020;5.304;2022-09-20T20:43:30;12.00;60.10
19214;DHT22;9741;51.020;5.304;2022-09-20T20:45:58;12.00;60.20
19214;DHT22;9741;51.020;5.304;2022-09-20T20:48:26;12.00;60.20
19214;DHT22;9741;51.020;5.304;2022-09-20T20:51:01;12.00;60.20
19214;DHT22;9741;51.020;5.304;2022-09-20T20:53:30;12.00;60.30
19214;DHT22;9741;51.020;5.304;2022-09-20T20:56:03;11.90;60.20
19214;DHT22;9741;51.020;5.304;2022-09-20T20:58:33;11.90;60.20
19214;DHT22;9741;51.020;5.304;2022-09-20T21:01:09;11.90;60.20
19214;DHT22;9741;51.020;5.304;2022-09-20T21:03:37;11.90;60.30
19214;DHT22;9741;51.020;5.304;2022-09-20T21:06:05;11.80;60.30
19214;DHT22;9741;51.020;5.304;2022-09-20T21:08:34;11.80;60.30
19214;DHT22;9741;51.020;5.304;2022-09-20T21:11:05;11.70;60.30
19214;DHT22;9741;51.020;5.304;2022-09-20T21:13:33;11.70;60.30
19214;DHT22;9741;51.020;5.304;2022-09-20T21:16:02;11.60;60.30
19214;DHT22;9741;51.020;5.304;2022-09-20T21:18:31;11.60;60.30
19214;DHT22;9741;51.020;5.304;2022-09-20T21:20:59;11.50;60.20
19214;DHT22;9741;51.020;5.304;2022-09-20T21:23:27;11.50;60.30
19214;DHT22;9741;51.020;5.304;2022-09-20T21:26:06;11.50;60.90
19214;DHT22;9741;51.020;5.304;2022-09-20T21:28:36;11.40;60.30
19214;DHT22;9741;51.020;5.304;2022-09-20T21:31:04;11.40;60.30
19214;DHT22;9741;51.020;5.304;2022-09-20T21:33:33;11.30;60.30
19214;DHT22;9741;51.020;5.304;2022-09-20T21:36:02;11.30;60.40
19214;DHT22;9741;51.020;5.304;2022-09-20T21:38:31;11.30;60.40
19214;DHT22;9741;51.020;5.304;2022-09-20T21:41:06;11.20;60.30
19214;DHT22;9741;51.020;5.304;2022-09-20T21:43:38;11.20;60.40
19214;DHT22;9741;51.020;5.304;2022-09-20T21:46:15;11.20;60.40
19214;DHT22;9741;51.020;5.304;2022-09-20T21:48:44;11.10;60.30
19214;DHT22;9741;51.020;5.304;2022-09-20T21:51:13;11.10;60.40
19214;DHT22;9741;51.020;5.304;2022-09-20T21:53:43;11.00;60.30
19214;DHT22;9741;51.020;5.304;2022-09-20T21:56:16;11.00;60.40
19214;DHT22;9741;51.020;5.304;2022-09-20T21:58:45;11.00;60.40
19214;DHT22;9741;51.020;5.304;2022-09-20T22:01:17;11.00;60.50
19214;DHT22;9741;51.020;5.304;2022-09-20T22:03:47;10.90;60.40
19214;DHT22;9741;51.020;5.304;2022-09-20T22:06:16;11.00;60.60
19214;DHT22;9741;51.020;5.304;2022-09-20T22:08:46;10.90;60.50
19214;DHT22;9741;51.020;5.304;2022-09-20T22:11:16;10.90;60.50
19214;DHT22;9741;51.020;5.304;2022-09-20T22:13:46;10.90;60.60